Enter the Airport ICAO Code

Search by Airport or City

Current Weather

KSEA | Seattle–Tacoma International Airport

Seattle, Washington, United States

Last Update 56 Minutes Ago

Sky with Few Clouds

Temperature of 14 ºC

Light Winds from SouthWest

Temperature

14 ºC

Dew Point Temperature

03 ºC

Relative Humidity

47.56 %

Wind Direction

SouthWest (210º, Without Significant Variations)

Wind Velocity

7 km/h (04 kt)

Gusts

None

Visibility

Greater than 10 Miles

Sea Level Pressure

30.03 inHg (Inches of Mercury)

Layers of Clouds

5% to 30% of Sky Covered from 7620 mts (25000 ft) Above Ground Level.

METAR KSEA 052153Z 21004KT 10SM FEW250 14/03 A3003 RMK AO2 SLP175 T01390028

Weather Forecast

KSEA | Seattle–Tacoma International Airport

Seattle, Washington, United States

Forecast valid for the next 25 Hours

From now on it is expected:

Sky with Few Clouds

Light Winds from South

In 3 hours it is expected the begining of:

Completely Cloudy Sky

Light to Moderate Winds from SouthEast

In 9 hours it is expected the begining of:

Light Rain

In 15 hours it is expected the begining of:

Completely Cloudy Sky

Light to Moderate Winds from South

Maximum Temperature

No Data

Minimum Temperature

No Data

TAF KSEA 052100Z 0521/0624 17004KT P6SM FEW250 FM060200 12008KT P6SM SCT100 OVC200 FM060800 12008KT P6SM -RA BKN040 OVC070 FM061400 18008KT P6SM OVC022